createdAt,value
2022-09-11T00:00:21.587Z,15.71
2022-09-11T00:02:49.407Z,15.68
2022-09-11T00:05:17.081Z,15.64
2022-09-11T00:07:44.699Z,15.60
2022-09-11T00:10:12.326Z,15.56
2022-09-11T00:12:39.891Z,15.52
2022-09-11T00:15:07.684Z,15.49
2022-09-11T00:17:35.597Z,15.45
2022-09-11T00:20:03.258Z,15.42
2022-09-11T00:22:31.041Z,15.40
2022-09-11T00:24:59.540Z,15.40
2022-09-11T00:27:27.331Z,15.39
2022-09-11T00:29:54.980Z,15.38
2022-09-11T00:32:22.894Z,15.37
2022-09-11T00:34:50.436Z,15.34
2022-09-11T00:37:18.131Z,15.34
2022-09-11T00:39:46.458Z,15.30
2022-09-11T00:42:15.114Z,15.27
2022-09-11T00:44:43.241Z,15.25
2022-09-11T00:47:11.024Z,15.23
2022-09-11T00:49:38.683Z,15.22
2022-09-11T00:52:08.653Z,15.21
2022-09-11T00:54:36.353Z,15.18
2022-09-11T00:57:04.326Z,15.16
2022-09-11T00:59:32.026Z,15.14
2022-09-11T01:02:06.577Z,15.13
2022-09-11T01:04:34.719Z,15.10
2022-09-11T01:07:02.368Z,15.08
2022-09-11T01:09:29.993Z,15.06
2022-09-11T01:11:57.909Z,15.04
2022-09-11T01:14:25.479Z,15.04
2022-09-11T01:16:53.407Z,15.02
2022-09-11T01:19:20.975Z,15.01
2022-09-11T01:21:52.490Z,15.00
2022-09-11T01:24:20.072Z,14.98
2022-09-11T01:26:47.649Z,14.97
2022-09-11T01:29:16.176Z,14.96
2022-09-11T01:31:45.997Z,14.94
2022-09-11T01:34:13.719Z,14.94
2022-09-11T01:36:41.460Z,14.94
2022-09-11T01:39:09.836Z,14.97
2022-09-11T01:41:37.408Z,15.01
2022-09-11T01:44:05.081Z,15.05
2022-09-11T01:46:34.886Z,15.09
2022-09-11T01:49:02.524Z,15.14
2022-09-11T01:51:30.076Z,15.18
2022-09-11T01:53:59.488Z,15.23
2022-09-11T01:56:27.159Z,15.28
2022-09-11T01:58:56.213Z,15.34
2022-09-11T02:01:23.899Z,15.40
2022-09-11T02:03:52.511Z,15.43
2022-09-11T02:06:20.117Z,15.46
2022-09-11T02:08:49.310Z,15.49
2022-09-11T02:11:16.965Z,15.53
2022-09-11T02:13:46.989Z,15.56
2022-09-11T02:16:14.720Z,15.59
2022-09-11T02:18:42.396Z,15.62
2022-09-11T02:21:10.409Z,15.65
2022-09-11T02:23:40.030Z,15.69
2022-09-11T02:26:07.695Z,15.72
2022-09-11T02:28:35.523Z,15.75
2022-09-11T02:31:03.639Z,15.76
2022-09-11T02:33:32.637Z,15.80
2022-09-11T02:36:00.296Z,15.85
2022-09-11T02:38:27.935Z,15.88
2022-09-11T02:40:55.597Z,15.91
2022-09-11T02:43:23.884Z,15.96
2022-09-11T02:45:54.476Z,15.99
2022-09-11T02:48:22.288Z,16.04
2022-09-11T02:50:49.868Z,16.07
2022-09-11T02:53:17.783Z,16.10
2022-09-11T02:55:45.361Z,16.13
2022-09-11T02:58:13.350Z,16.15
2022-09-11T03:00:41.131Z,16.17
2022-09-11T03:03:10.141Z,16.18
2022-09-11T03:05:40.389Z,16.19
2022-09-11T03:08:08.390Z,16.22
2022-09-11T03:10:35.961Z,16.23
2022-09-11T03:13:03.942Z,16.25
2022-09-11T03:15:31.670Z,16.27
2022-09-11T03:17:59.293Z,16.30
2022-09-11T03:20:27.043Z,16.33
2022-09-11T03:22:55.205Z,16.36
2022-09-11T03:25:23.842Z,16.38
2022-09-11T03:27:51.758Z,16.39
2022-09-11T03:30:19.355Z,16.38
2022-09-11T03:32:48.248Z,16.38
2022-09-11T03:35:16.763Z,16.38
2022-09-11T03:37:44.497Z,16.40
2022-09-11T03:40:12.354Z,16.40
2022-09-11T03:42:41.402Z,16.39
2022-09-11T03:45:09.073Z,16.39
2022-09-11T03:47:37.538Z,16.39
2022-09-11T03:50:05.234Z,16.39
2022-09-11T03:52:33.160Z,16.38
2022-09-11T03:55:01.188Z,16.39
2022-09-11T03:57:28.819Z,16.40
2022-09-11T03:59:57.151Z,16.41
2022-09-11T04:02:25.101Z,16.42
2022-09-11T04:04:52.759Z,16.43
2022-09-11T04:07:20.964Z,16.41
2022-09-11T04:09:48.581Z,16.43
2022-09-11T04:12:17.497Z,16.44
2022-09-11T04:14:45.193Z,16.44
2022-09-11T04:17:12.777Z,16.43
2022-09-11T04:19:40.511Z,16.42
2022-09-11T04:22:10.544Z,16.42
2022-09-11T04:24:38.133Z,16.43
2022-09-11T04:27:05.820Z,16.44
2022-09-11T04:29:33.869Z,16.45
2022-09-11T04:32:02.283Z,16.45
2022-09-11T04:34:29.979Z,16.44
2022-09-11T04:36:57.699Z,16.43
2022-09-11T04:39:25.339Z,16.41
2022-09-11T04:41:55.519Z,16.40
2022-09-11T04:44:24.352Z,16.40
2022-09-11T04:46:51.939Z,16.39
2022-09-11T04:49:19.614Z,16.38
2022-09-11T04:51:47.284Z,16.36
2022-09-11T04:54:14.866Z,16.34
2022-09-11T04:56:42.541Z,16.31
2022-09-11T04:59:13.471Z,16.29
2022-09-11T05:01:41.101Z,16.28
2022-09-11T05:04:09.696Z,16.27
2022-09-11T05:06:38.073Z,16.27
2022-09-11T05:09:06.091Z,16.26
2022-09-11T05:11:33.742Z,16.27
2022-09-11T05:14:01.677Z,16.29
2022-09-11T05:16:29.631Z,16.31
2022-09-11T05:18:57.307Z,16.31
2022-09-11T05:21:25.126Z,16.31
2022-09-11T05:23:52.771Z,16.32
2022-09-11T05:26:20.535Z,16.30
2022-09-11T05:28:48.140Z,16.31
2022-09-11T05:31:15.868Z,16.31
2022-09-11T05:33:44.526Z,16.32
2022-09-11T05:36:12.281Z,16.34
2022-09-11T05:38:40.276Z,16.34
2022-09-11T05:41:07.949Z,16.34
2022-09-11T05:43:35.988Z,16.34
2022-09-11T05:46:03.683Z,16.33
2022-09-11T05:48:31.361Z,16.34
2022-09-11T05:50:59.749Z,16.34
2022-09-11T05:53:27.790Z,16.33
2022-09-11T05:55:55.417Z,16.33
2022-09-11T05:58:22.982Z,16.32
2022-09-11T06:00:50.698Z,16.34
2022-09-11T06:03:18.968Z,16.37
2022-09-11T06:05:46.663Z,16.39
2022-09-11T06:08:14.374Z,16.43
2022-09-11T06:10:42.017Z,16.46
2022-09-11T06:13:09.945Z,16.50
2022-09-11T06:15:46.673Z,16.54
2022-09-11T06:18:14.775Z,16.59
2022-09-11T06:20:42.668Z,16.63
2022-09-11T06:23:10.651Z,16.64
2022-09-11T06:25:38.438Z,16.65
2022-09-11T06:28:06.185Z,16.68
2022-09-11T06:30:33.778Z,16.72
2022-09-11T06:33:01.802Z,16.73
2022-09-11T06:35:30.186Z,16.74
2022-09-11T06:37:57.770Z,16.75
2022-09-11T06:40:25.543Z,16.75
2022-09-11T06:42:54.375Z,16.74
2022-09-11T06:45:22.141Z,16.72
2022-09-11T06:47:49.714Z,16.75
2022-09-11T06:50:17.416Z,16.83
2022-09-11T06:52:46.065Z,16.87
2022-09-11T06:55:14.700Z,16.93
2022-09-11T06:57:42.710Z,16.97
2022-09-11T07:00:10.445Z,16.99
2022-09-11T07:02:38.876Z,17.01
2022-09-11T07:05:06.530Z,17.07
2022-09-11T07:07:34.827Z,17.10
2022-09-11T07:10:05.277Z,17.14
2022-09-11T07:12:33.280Z,17.15
2022-09-11T07:15:00.958Z,17.16
2022-09-11T07:17:28.593Z,17.18
2022-09-11T07:19:56.323Z,17.18
2022-09-11T07:22:24.223Z,17.21
2022-09-11T07:24:55.360Z,17.25
2022-09-11T07:27:23.075Z,17.25
2022-09-11T07:29:50.788Z,17.24
2022-09-11T07:32:18.709Z,17.24
2022-09-11T07:34:47.707Z,17.23
2022-09-11T07:37:15.520Z,17.25
2022-09-11T07:39:43.205Z,17.32
2022-09-11T07:42:12.243Z,17.36
2022-09-11T07:44:39.857Z,17.39
2022-09-11T07:47:07.555Z,17.44
2022-09-11T07:49:35.135Z,17.52
2022-09-11T07:52:03.843Z,17.63
2022-09-11T07:54:31.513Z,17.72
2022-09-11T07:56:59.230Z,17.83
2022-09-11T07:59:28.065Z,17.97
2022-09-11T08:01:56.754Z,18.08
2022-09-11T08:04:24.776Z,18.10
2022-09-11T08:06:52.420Z,18.10
2022-09-11T08:09:20.532Z,18.12
2022-09-11T08:11:48.907Z,18.20
2022-09-11T08:14:17.793Z,18.31
2022-09-11T08:16:45.565Z,18.43
2022-09-11T08:19:13.243Z,18.56
2022-09-11T08:21:42.198Z,18.65
2022-09-11T08:24:09.831Z,18.71
2022-09-11T08:26:37.463Z,18.79
2022-09-11T08:29:05.335Z,18.90
2022-09-11T08:31:33.892Z,19.01
2022-09-11T08:34:01.869Z,19.08
2022-09-11T08:36:29.815Z,19.03
2022-09-11T08:38:57.421Z,18.95
2022-09-11T08:41:25.101Z,18.83
2022-09-11T08:43:53.157Z,18.78
2022-09-11T08:46:20.884Z,18.76
2022-09-11T08:48:48.684Z,18.73
2022-09-11T08:51:16.343Z,18.76
2022-09-11T08:53:45.852Z,18.76
2022-09-11T08:56:13.715Z,18.78
2022-09-11T08:58:41.325Z,18.80
2022-09-11T09:01:09.086Z,18.82
2022-09-11T09:03:37.053Z,18.83
2022-09-11T09:06:04.702Z,18.79
2022-09-11T09:08:35.442Z,18.73
2022-09-11T09:11:03.141Z,18.65
2022-09-11T09:13:31.603Z,18.62
2022-09-11T09:15:59.231Z,18.65
2022-09-11T09:18:26.937Z,18.72
2022-09-11T09:20:54.548Z,18.79
2022-09-11T09:23:22.551Z,18.96
2022-09-11T09:25:52.879Z,19.19
2022-09-11T09:28:20.562Z,19.44
2022-09-11T09:30:48.306Z,19.81
2022-09-11T09:33:16.531Z,20.03
2022-09-11T09:35:44.365Z,20.00
2022-09-11T09:38:11.959Z,19.91
2022-09-11T09:40:39.588Z,19.90
2022-09-11T09:43:07.558Z,19.90
2022-09-11T09:45:37.733Z,19.96
2022-09-11T09:48:05.970Z,20.19
2022-09-11T09:50:33.725Z,20.46
2022-09-11T09:53:01.477Z,20.50
2022-09-11T09:55:29.167Z,20.39
2022-09-11T09:57:56.997Z,20.32
2022-09-11T10:00:24.721Z,20.43
2022-09-11T10:02:55.241Z,20.62
2022-09-11T10:05:22.871Z,20.72
2022-09-11T10:07:50.564Z,21.28
2022-09-11T10:10:18.412Z,21.81
2022-09-11T10:12:46.050Z,22.16
2022-09-11T10:15:13.747Z,22.40
2022-09-11T10:17:41.352Z,22.93
2022-09-11T10:20:09.161Z,23.11
2022-09-11T10:22:36.807Z,23.48
2022-09-11T10:25:04.581Z,24.38
2022-09-11T10:27:32.854Z,24.91
2022-09-11T10:30:00.762Z,24.65
2022-09-11T10:32:29.123Z,24.00
2022-09-11T10:34:56.860Z,23.71
2022-09-11T10:37:24.832Z,23.71
2022-09-11T10:39:52.604Z,23.49
2022-09-11T10:42:23.256Z,23.02
2022-09-11T10:44:50.923Z,22.94
2022-09-11T10:47:18.698Z,22.95
2022-09-11T10:49:47.358Z,22.67
2022-09-11T10:52:15.313Z,22.99
2022-09-11T10:54:44.681Z,23.31
2022-09-11T10:57:13.483Z,23.16
2022-09-11T10:59:41.662Z,22.96
2022-09-11T11:02:10.579Z,22.66
2022-09-11T11:04:38.304Z,22.37
2022-09-11T11:07:05.947Z,22.21
2022-09-11T11:09:33.678Z,22.61
2022-09-11T11:12:01.654Z,22.86
2022-09-11T11:14:29.488Z,22.71
2022-09-11T11:16:57.153Z,22.46
2022-09-11T11:19:24.883Z,22.32
2022-09-11T11:21:52.590Z,22.31
2022-09-11T11:24:21.649Z,22.54
2022-09-11T11:26:49.393Z,23.51
2022-09-11T11:29:17.098Z,23.96
2022-09-11T11:31:44.859Z,23.84
2022-09-11T11:34:12.850Z,23.46
2022-09-11T11:36:40.629Z,23.05
2022-09-11T11:39:08.934Z,23.08
2022-09-11T11:41:36.698Z,23.83
2022-09-11T11:44:04.657Z,23.84
2022-09-11T11:46:33.724Z,23.86
2022-09-11T11:49:01.308Z,24.69
2022-09-11T11:51:29.028Z,24.78
2022-09-11T11:53:57.044Z,24.78
2022-09-11T11:56:24.740Z,24.65
2022-09-11T11:58:52.455Z,24.35
2022-09-11T12:01:20.450Z,24.07
2022-09-11T12:03:48.601Z,23.56
2022-09-11T12:06:16.443Z,23.28
2022-09-11T12:08:44.863Z,23.31
2022-09-11T12:11:13.050Z,23.12
2022-09-11T12:13:41.049Z,22.77
2022-09-11T12:16:11.373Z,22.43
2022-09-11T12:18:39.286Z,22.26
2022-09-11T12:21:07.299Z,22.14
2022-09-11T12:23:35.005Z,22.07
2022-09-11T12:26:02.756Z,22.27
2022-09-11T12:28:30.498Z,22.30
2022-09-11T12:30:58.302Z,22.38
2022-09-11T12:33:26.292Z,22.58
2022-09-11T12:35:54.194Z,22.58
2022-09-11T12:38:21.932Z,22.67
2022-09-11T12:40:49.789Z,22.82
2022-09-11T12:43:18.996Z,22.81
2022-09-11T12:45:48.561Z,22.61
2022-09-11T12:48:16.704Z,22.38
2022-09-11T12:50:44.391Z,22.24
2022-09-11T12:53:13.278Z,22.36
2022-09-11T12:55:41.037Z,22.41
2022-09-11T12:58:08.656Z,22.49
2022-09-11T13:00:36.451Z,22.60
2022-09-11T13:03:04.446Z,22.53
2022-09-11T13:05:34.767Z,22.41
2022-09-11T13:08:04.450Z,22.29
2022-09-11T13:10:33.591Z,22.21
2022-09-11T13:13:02.772Z,22.16
2022-09-11T13:15:30.522Z,22.12
2022-09-11T13:17:58.207Z,22.07
2022-09-11T13:20:25.800Z,21.96
2022-09-11T13:23:04.083Z,21.94
2022-09-11T13:25:32.180Z,21.96
2022-09-11T13:27:59.800Z,21.97
2022-09-11T13:30:27.750Z,21.96
2022-09-11T13:33:14.506Z,21.93
2022-09-11T13:35:42.199Z,22.22
2022-09-11T13:38:10.203Z,22.50
2022-09-11T13:40:37.900Z,22.90
2022-09-11T13:43:05.661Z,23.20
2022-09-11T13:48:56.496Z,23.41
2022-09-11T13:51:24.246Z,23.52
2022-09-11T13:53:51.996Z,23.39
2022-09-11T13:56:21.155Z,23.18
2022-09-11T13:58:53.336Z,23.10
2022-09-11T14:01:21.480Z,23.19
2022-09-11T14:03:58.738Z,23.42
2022-09-11T14:06:26.479Z,23.66
2022-09-11T14:08:54.525Z,23.63
2022-09-11T14:11:22.293Z,23.73
2022-09-11T14:13:50.063Z,23.91
2022-09-11T14:16:17.935Z,24.09
2022-09-11T14:18:46.411Z,24.29
2022-09-11T14:21:14.521Z,24.43
2022-09-11T14:23:43.173Z,24.55
2022-09-11T14:26:10.969Z,24.75
2022-09-11T14:28:38.649Z,24.99
2022-09-11T14:31:06.911Z,25.22
2022-09-11T14:33:47.432Z,25.39
2022-09-11T14:36:22.109Z,25.58
2022-09-11T14:38:50.340Z,25.88
2022-09-11T14:41:17.897Z,26.19
2022-09-11T14:43:48.914Z,26.47
2022-09-11T14:46:17.119Z,26.53
2022-09-11T14:48:45.036Z,26.48
2022-09-11T14:51:13.688Z,26.35
2022-09-11T14:53:43.649Z,26.24
2022-09-11T14:56:11.726Z,26.14
2022-09-11T14:58:39.390Z,26.05
2022-09-11T15:01:07.323Z,26.00
2022-09-11T15:03:35.098Z,25.96
2022-09-11T15:06:02.844Z,25.86
2022-09-11T15:08:30.442Z,25.91
2022-09-11T15:10:57.963Z,26.20
2022-09-11T15:13:26.110Z,26.58
2022-09-11T15:15:53.758Z,27.10
2022-09-11T15:18:22.053Z,27.66
2022-09-11T15:20:49.670Z,28.21
2022-09-11T15:23:17.726Z,28.74
2022-09-11T15:25:45.557Z,29.15
2022-09-11T15:28:13.269Z,29.35
2022-09-11T15:30:41.736Z,29.48
2022-09-11T15:33:09.271Z,29.54
2022-09-11T15:35:36.935Z,29.59
2022-09-11T15:38:05.667Z,29.75
2022-09-11T15:40:33.763Z,29.87
2022-09-11T15:43:01.351Z,30.06
2022-09-11T15:45:28.966Z,30.27
2022-09-11T15:47:56.536Z,30.42
2022-09-11T15:50:28.853Z,30.48
2022-09-11T15:52:56.451Z,30.51
2022-09-11T15:55:25.281Z,30.48
2022-09-11T15:57:52.966Z,30.27
2022-09-11T16:00:20.502Z,29.42
2022-09-11T16:02:49.558Z,28.29
2022-09-11T16:05:17.116Z,27.25
2022-09-11T16:07:44.718Z,26.38
2022-09-11T16:10:12.271Z,25.62
2022-09-11T16:12:39.877Z,24.95
2022-09-11T16:15:07.745Z,24.35
2022-09-11T16:17:35.379Z,23.86
2022-09-11T16:20:03.060Z,23.44
2022-09-11T16:22:32.017Z,23.08
2022-09-11T16:25:00.361Z,22.77
2022-09-11T16:27:28.298Z,22.48
2022-09-11T16:32:43.694Z,22.04
2022-09-11T16:35:13.449Z,21.87
2022-09-11T16:37:41.589Z,21.68
2022-09-11T16:40:09.773Z,21.53
2022-09-11T16:42:37.611Z,21.39
2022-09-11T16:45:05.521Z,21.27
2022-09-11T16:47:33.569Z,21.15
2022-09-11T16:50:07.330Z,21.06
2022-09-11T16:52:35.904Z,20.97
2022-09-11T16:55:03.504Z,20.87
2022-09-11T16:57:31.071Z,20.80
2022-09-11T16:59:58.837Z,20.72
2022-09-11T17:02:26.946Z,20.63
2022-09-11T17:04:54.542Z,20.55
2022-09-11T17:07:22.198Z,20.47
2022-09-11T17:09:49.776Z,20.38
2022-09-11T17:12:17.796Z,20.30
2022-09-11T17:14:45.718Z,20.21
2022-09-11T17:17:13.554Z,20.13
2022-09-11T17:19:41.136Z,20.07
2022-09-11T17:22:10.707Z,19.98
2022-09-11T17:24:38.911Z,19.89
2022-09-11T17:27:06.579Z,19.80
2022-09-11T17:29:35.239Z,19.71
2022-09-11T17:32:24.124Z,19.60
2022-09-11T17:34:51.161Z,19.47
2022-09-11T17:37:18.787Z,19.35
2022-09-11T17:39:46.391Z,19.25
2022-09-11T17:42:13.975Z,19.15
2022-09-11T17:44:42.470Z,19.07
2022-09-11T17:47:10.000Z,18.97
2022-09-11T17:49:38.800Z,18.89
2022-09-11T17:52:07.170Z,18.81
2022-09-11T17:54:34.888Z,18.73
2022-09-11T17:57:02.468Z,18.63
2022-09-11T17:59:30.099Z,18.56
2022-09-11T18:01:59.162Z,18.47
2022-09-11T18:04:27.133Z,18.38
2022-09-11T18:06:55.203Z,18.31
2022-09-11T18:09:22.825Z,18.24
2022-09-11T18:11:51.063Z,18.15
2022-09-11T18:14:18.629Z,18.08
2022-09-11T18:16:47.340Z,18.00
2022-09-11T18:19:15.002Z,17.93
2022-09-11T18:21:45.558Z,17.85
2022-09-11T18:24:19.776Z,17.77
2022-09-11T18:26:47.663Z,17.70
2022-09-11T18:29:16.732Z,17.65
2022-09-11T18:31:44.342Z,17.58
2022-09-11T18:34:11.971Z,17.52
2022-09-11T18:36:39.532Z,17.46
2022-09-11T18:39:07.255Z,17.40
2022-09-11T18:41:35.063Z,17.34
2022-09-11T18:44:04.116Z,17.27
2022-09-11T18:46:32.183Z,17.18
2022-09-11T18:49:00.308Z,17.08
2022-09-11T18:51:28.590Z,17.00
2022-09-11T18:53:56.651Z,16.92
2022-09-11T18:56:24.171Z,16.82
2022-09-11T18:58:52.462Z,16.75
2022-09-11T19:01:20.503Z,16.68
2022-09-11T19:03:48.289Z,16.63
2022-09-11T19:06:15.803Z,16.58
2022-09-11T19:08:43.392Z,16.54
2022-09-11T19:11:10.977Z,16.51
2022-09-11T19:13:38.733Z,16.47
2022-09-11T19:16:07.249Z,16.44
2022-09-11T19:18:34.772Z,16.41
2022-09-11T19:21:03.896Z,16.37
2022-09-11T19:23:31.620Z,16.31
2022-09-11T19:25:59.441Z,16.23
2022-09-11T19:28:28.635Z,16.17
2022-09-11T19:30:57.249Z,16.10
2022-09-11T19:33:24.866Z,16.03
2022-09-11T19:35:52.421Z,15.97
2022-09-11T19:38:21.238Z,15.92
2022-09-11T19:40:48.982Z,15.88
2022-09-11T19:43:17.536Z,15.85
2022-09-11T19:45:45.938Z,15.81
2022-09-11T19:48:13.464Z,15.76
2022-09-11T19:50:41.025Z,15.73
2022-09-11T19:53:08.616Z,15.68
2022-09-11T19:55:36.416Z,15.67
2022-09-11T19:58:04.770Z,15.64
2022-09-11T20:00:32.754Z,15.61
2022-09-11T20:03:00.486Z,15.60
2022-09-11T20:05:28.033Z,15.58
2022-09-11T20:07:56.116Z,15.54
2022-09-11T20:10:24.410Z,15.49
2022-09-11T20:12:51.981Z,15.45
2022-09-11T20:15:19.510Z,15.42
2022-09-11T20:17:47.180Z,15.39
2022-09-11T20:20:14.834Z,15.34
2022-09-11T20:22:42.894Z,15.29
2022-09-11T20:25:10.348Z,15.25
2022-09-11T20:27:38.098Z,15.22
2022-09-11T20:30:05.937Z,15.19
2022-09-11T20:32:33.495Z,15.18
2022-09-11T20:35:00.987Z,15.16
2022-09-11T20:37:28.899Z,15.17
2022-09-11T20:39:56.486Z,15.15
2022-09-11T20:42:24.018Z,15.12
2022-09-11T20:44:52.424Z,15.09
2022-09-11T20:47:19.936Z,15.05
2022-09-11T20:49:47.427Z,14.98
2022-09-11T20:52:14.943Z,14.94
2022-09-11T20:54:42.459Z,14.93
2022-09-11T20:57:10.217Z,14.88
2022-09-11T20:59:37.871Z,14.84
2022-09-11T21:02:05.436Z,14.80
2022-09-11T21:04:33.032Z,14.75
2022-09-11T21:07:00.730Z,14.70
2022-09-11T21:09:28.249Z,14.64
2022-09-11T21:11:55.711Z,14.60
2022-09-11T21:14:23.225Z,14.57
2022-09-11T21:16:50.721Z,14.52
2022-09-11T21:19:18.410Z,14.49
2022-09-11T21:21:46.151Z,14.46
2022-09-11T21:24:13.659Z,14.46
2022-09-11T21:26:41.219Z,14.46
2022-09-11T21:29:09.051Z,14.43
2022-09-11T21:31:36.675Z,14.40
2022-09-11T21:34:04.210Z,14.37
2022-09-11T21:36:32.417Z,14.36
2022-09-11T21:38:59.989Z,14.34
2022-09-11T21:41:27.454Z,14.32
2022-09-11T21:43:54.977Z,14.31
2022-09-11T21:46:22.482Z,14.28
2022-09-11T21:48:49.991Z,14.26
2022-09-11T21:51:17.789Z,14.23
2022-09-11T21:53:45.374Z,14.23
2022-09-11T21:56:12.938Z,14.22
2022-09-11T21:58:40.472Z,14.21
2022-09-11T22:01:08.662Z,14.18
2022-09-11T22:03:36.241Z,14.16
2022-09-11T22:06:03.786Z,14.14
2022-09-11T22:08:31.404Z,14.12
2022-09-11T22:10:58.882Z,14.11
2022-09-11T22:13:26.700Z,14.09
2022-09-11T22:15:54.219Z,14.07
2022-09-11T22:18:21.725Z,14.04
2022-09-11T22:20:49.239Z,14.00
2022-09-11T22:23:16.914Z,13.94
2022-09-11T22:25:44.389Z,13.90
2022-09-11T22:28:12.128Z,13.86
2022-09-11T22:30:39.589Z,13.82
2022-09-11T22:33:07.083Z,13.83
2022-09-11T22:35:34.966Z,13.79
2022-09-11T22:38:02.460Z,13.74
2022-09-11T22:40:29.962Z,13.71
2022-09-11T22:42:57.466Z,13.66
2022-09-11T22:45:24.972Z,13.64
2022-09-11T22:47:52.464Z,13.62
2022-09-11T22:50:19.971Z,13.58
2022-09-11T22:52:48.496Z,13.58
2022-09-11T22:55:16.314Z,13.56
2022-09-11T22:57:43.841Z,13.55
2022-09-11T23:00:11.603Z,13.54
2022-09-11T23:02:39.072Z,13.52
2022-09-11T23:05:24.193Z,13.52
2022-09-11T23:07:51.752Z,13.50
2022-09-11T23:10:23.748Z,13.48
2022-09-11T23:12:51.440Z,13.47
2022-09-11T23:15:19.351Z,13.45
2022-09-11T23:17:46.974Z,13.45
2022-09-11T23:20:14.460Z,13.40
2022-09-11T23:22:42.107Z,13.38
2022-09-11T23:25:11.188Z,13.35
2022-09-11T23:27:38.716Z,13.32
2022-09-11T23:30:06.167Z,13.31
2022-09-11T23:32:33.776Z,13.26
2022-09-11T23:35:01.569Z,13.23
2022-09-11T23:37:29.137Z,13.18
2022-09-11T23:39:56.629Z,13.13
2022-09-11T23:42:24.168Z,13.07
2022-09-11T23:44:51.657Z,13.02
2022-09-11T23:47:19.118Z,12.99
2022-09-11T23:49:48.037Z,12.98
2022-09-11T23:52:15.530Z,12.95
2022-09-11T23:54:42.986Z,12.94
2022-09-11T23:57:10.555Z,12.92
2022-09-11T23:59:38.320Z,12.89
